createdAt,value
2019-04-27T00:00:28.461Z,13.52
2019-04-27T00:01:26.031Z,13.55
2019-04-27T00:02:26.498Z,13.48
2019-04-27T00:03:23.505Z,13.49
2019-04-27T00:04:23.545Z,13.51
2019-04-27T00:05:20.516Z,13.57
2019-04-27T00:06:19.139Z,13.59
2019-04-27T00:07:21.119Z,13.52
2019-04-27T00:08:16.306Z,13.52
2019-04-27T00:09:15.010Z,13.49
2019-04-27T00:10:13.766Z,13.49
2019-04-27T00:11:13.624Z,13.57
2019-04-27T00:12:10.971Z,13.55
2019-04-27T00:13:09.683Z,13.55
2019-04-27T00:14:10.260Z,13.51
2019-04-27T00:15:07.008Z,13.55
2019-04-27T00:16:09.832Z,13.66
2019-04-27T00:17:04.269Z,13.63
2019-04-27T00:18:03.634Z,13.54
2019-04-27T00:19:01.672Z,13.57
2019-04-27T00:20:00.253Z,13.52
2019-04-27T00:20:58.809Z,13.6
2019-04-27T00:21:57.402Z,13.63
2019-04-27T00:22:55.965Z,13.51
2019-04-27T00:23:54.713Z,13.46
2019-04-27T00:24:53.517Z,13.49
2019-04-27T00:25:52.749Z,13.59
2019-04-27T00:26:50.807Z,13.44
2019-04-27T00:27:49.463Z,13.48
2019-04-27T00:28:48.030Z,13.38
2019-04-27T00:29:46.574Z,13.46
2019-04-27T00:30:45.243Z,13.59
2019-04-27T00:31:43.856Z,13.55
2019-04-27T00:32:43.302Z,13.55
2019-04-27T00:33:40.998Z,13.51
2019-04-27T00:34:39.669Z,13.69
2019-04-27T00:35:38.250Z,13.82
2019-04-27T00:36:36.807Z,13.78
2019-04-27T00:37:35.431Z,13.84
2019-04-27T00:38:33.993Z,13.88
2019-04-27T00:39:33.010Z,13.78
2019-04-27T00:40:31.190Z,13.81
2019-04-27T00:41:29.747Z,13.85
2019-04-27T00:42:28.283Z,13.89
2019-04-27T00:43:26.960Z,13.84
2019-04-27T00:44:25.557Z,13.88
2019-04-27T00:45:24.090Z,13.82
2019-04-27T00:46:22.912Z,13.75
2019-04-27T00:47:21.454Z,13.7
2019-04-27T00:48:19.990Z,13.69
2019-04-27T00:49:20.204Z,13.6
2019-04-27T00:50:17.319Z,13.62
2019-04-27T00:51:15.949Z,13.62
2019-04-27T00:52:14.430Z,13.59
2019-04-27T00:53:13.364Z,13.66
2019-04-27T00:54:11.533Z,13.71
2019-04-27T00:55:10.077Z,13.66
2019-04-27T00:56:08.759Z,13.7
2019-04-27T00:57:07.619Z,13.84
2019-04-27T00:58:06.180Z,13.78
2019-04-27T00:59:04.749Z,13.69
2019-04-27T01:00:49.239Z,13.71
2019-04-27T01:01:47.781Z,13.63
2019-04-27T01:02:46.337Z,13.64
2019-04-27T01:03:44.883Z,13.6
2019-04-27T01:04:43.456Z,13.57
2019-04-27T01:05:43.030Z,13.54
2019-04-27T01:06:40.859Z,13.62
2019-04-27T01:07:39.564Z,13.57
2019-04-27T01:08:38.126Z,13.55
2019-04-27T01:09:36.787Z,13.49
2019-04-27T01:10:35.521Z,13.45
2019-04-27T01:11:34.057Z,13.38
2019-04-27T01:12:33.399Z,13.33
2019-04-27T01:13:31.197Z,13.42
2019-04-27T01:14:29.817Z,13.42
2019-04-27T01:15:28.411Z,13.45
2019-04-27T01:16:26.998Z,13.45
2019-04-27T01:17:25.748Z,13.49
2019-04-27T01:18:24.276Z,13.46
2019-04-27T01:19:22.828Z,13.45
2019-04-27T01:20:21.426Z,13.39
2019-04-27T01:21:19.975Z,13.39
2019-04-27T01:22:18.887Z,13.38
2019-04-27T01:23:17.088Z,13.46
2019-04-27T01:24:15.750Z,13.44
2019-04-27T01:25:14.328Z,13.59
2019-04-27T01:26:12.974Z,13.48
2019-04-27T01:27:11.674Z,13.41
2019-04-27T01:28:10.270Z,13.44
2019-04-27T01:29:10.254Z,13.51
2019-04-27T01:30:08.762Z,13.46
2019-04-27T01:31:06.277Z,13.32
2019-04-27T01:32:04.855Z,13.14
2019-04-27T01:33:03.428Z,13.33
2019-04-27T01:34:01.954Z,13.45
2019-04-27T01:35:00.524Z,13.52
2019-04-27T01:35:59.091Z,13.55
2019-04-27T01:36:59.311Z,13.55
2019-04-27T01:37:56.182Z,13.57
2019-04-27T01:38:54.720Z,13.52
2019-04-27T01:39:53.387Z,13.49
2019-04-27T01:40:51.971Z,13.57
2019-04-27T01:41:50.530Z,13.49
2019-04-27T01:42:49.302Z,13.57
2019-04-27T01:43:49.019Z,13.55
2019-04-27T01:44:46.398Z,13.6
2019-04-27T01:45:45.035Z,13.6
2019-04-27T01:46:43.595Z,13.54
2019-04-27T01:47:42.137Z,13.6
2019-04-27T01:48:40.694Z,13.67
2019-04-27T01:49:39.673Z,13.64
2019-04-27T01:50:39.159Z,13.66
2019-04-27T01:51:36.514Z,13.79
2019-04-27T01:52:35.484Z,13.81
2019-04-27T01:53:34.042Z,13.75
2019-04-27T01:54:32.555Z,13.54
2019-04-27T01:55:31.118Z,13.44
2019-04-27T01:56:29.657Z,13.42
2019-04-27T01:57:29.440Z,13.57
2019-04-27T01:58:26.749Z,13.45
2019-04-27T01:59:25.323Z,13.39
2019-04-27T02:00:23.871Z,13.15
2019-04-27T02:01:22.460Z,13.05
2019-04-27T02:02:21.123Z,13.14
2019-04-27T02:03:19.848Z,12.97
2019-04-27T02:04:19.296Z,12.82
2019-04-27T02:05:18.866Z,12.83
2019-04-27T02:06:15.827Z,13
2019-04-27T02:07:14.378Z,12.95
2019-04-27T02:08:12.927Z,12.96
2019-04-27T02:09:11.494Z,12.93
2019-04-27T02:10:10.034Z,12.92
2019-04-27T02:11:09.229Z,13.04
2019-04-27T02:14:48.720Z,12.95
2019-04-27T02:15:46.025Z,12.95
2019-04-27T02:16:44.656Z,12.97
2019-04-27T02:17:43.278Z,12.96
2019-04-27T02:18:41.854Z,12.93
2019-04-27T02:19:40.388Z,12.83
2019-04-27T02:20:38.980Z,12.83
2019-04-27T02:21:39.144Z,12.85
2019-04-27T02:22:36.117Z,12.7
2019-04-27T02:23:34.716Z,12.77
2019-04-27T02:24:33.382Z,12.82
2019-04-27T02:25:31.910Z,12.79
2019-04-27T02:26:30.447Z,12.7
2019-04-27T02:27:29.106Z,12.74
2019-04-27T02:28:29.256Z,12.79
2019-04-27T02:29:26.315Z,12.85
2019-04-27T02:30:25.006Z,12.95
2019-04-27T02:31:23.688Z,12.87
2019-04-27T02:32:22.235Z,12.85
2019-04-27T02:33:20.794Z,12.97
2019-04-27T02:34:20.000Z,12.96
2019-04-27T02:35:19.274Z,12.97
2019-04-27T02:36:16.450Z,12.85
2019-04-27T02:37:15.119Z,12.93
2019-04-27T02:38:13.800Z,12.96
2019-04-27T02:39:12.330Z,13.12
2019-04-27T02:40:11.024Z,13.07
2019-04-27T02:41:10.104Z,13.1
2019-04-27T02:42:10.085Z,13.11
2019-04-27T02:43:06.748Z,13.1
2019-04-27T02:44:05.504Z,13.08
2019-04-27T02:45:04.039Z,13.03
2019-04-27T02:46:02.590Z,12.96
2019-04-27T02:47:01.327Z,12.97
2019-04-27T02:47:59.978Z,12.97
2019-04-27T02:49:01.224Z,13.03
2019-04-27T02:49:57.298Z,13.08
2019-04-27T02:50:55.897Z,13.05
2019-04-27T02:51:54.430Z,13.01
2019-04-27T02:52:53.028Z,13.04
2019-04-27T02:53:51.609Z,13.03
2019-04-27T02:54:50.611Z,13.08
2019-04-27T02:55:49.907Z,13.05
2019-04-27T02:56:47.264Z,13.03
2019-04-27T02:57:45.813Z,13.07
2019-04-27T02:58:44.361Z,13.22
2019-04-27T02:59:43.037Z,13.22
2019-04-27T03:00:41.836Z,13.12
2019-04-27T03:01:45.762Z,13.22
2019-04-27T03:02:40.285Z,13.19
2019-04-27T03:03:40.865Z,13.17
2019-04-27T03:04:39.528Z,13.1
2019-04-27T03:05:35.827Z,13.25
2019-04-27T03:06:34.374Z,13.22
2019-04-27T03:07:33.154Z,13.2
2019-04-27T03:08:31.713Z,13.08
2019-04-27T03:09:30.597Z,13.1
2019-04-27T03:10:29.723Z,13.07
2019-04-27T03:11:30.458Z,13.12
2019-04-27T03:12:26.457Z,13.23
2019-04-27T03:13:25.012Z,13.08
2019-04-27T03:14:32.267Z,13.26
2019-04-27T03:15:23.304Z,13.11
2019-04-27T03:16:20.727Z,13.11
2019-04-27T03:17:22.355Z,13.1
2019-04-27T03:18:19.448Z,12.95
2019-04-27T03:19:18.627Z,12.97
2019-04-27T03:20:15.434Z,13
2019-04-27T03:21:13.996Z,12.97
2019-04-27T03:22:12.593Z,13.04
2019-04-27T03:23:11.324Z,13.1
2019-04-27T03:24:10.071Z,13.05
2019-04-27T03:25:10.159Z,13.11
2019-04-27T03:26:07.389Z,13.25
2019-04-27T03:27:05.964Z,13.14
2019-04-27T03:28:04.533Z,13.07
2019-04-27T03:29:03.183Z,13.01
2019-04-27T03:30:01.741Z,12.96
2019-04-27T03:31:02.341Z,12.95
2019-04-27T03:32:01.845Z,12.97
2019-04-27T03:33:02.673Z,12.79
2019-04-27T03:34:00.062Z,12.86
2019-04-27T03:34:54.579Z,12.78
2019-04-27T03:35:53.590Z,12.82
2019-04-27T03:36:52.141Z,12.85
2019-04-27T03:37:50.679Z,12.79
2019-04-27T03:38:49.728Z,12.92
2019-04-27T03:39:49.855Z,12.83
2019-04-27T03:40:46.397Z,12.85
2019-04-27T03:41:44.931Z,12.77
2019-04-27T03:42:43.564Z,12.96
2019-04-27T03:43:42.124Z,13
2019-04-27T03:44:40.668Z,13.05
2019-04-27T03:45:40.043Z,12.96
2019-04-27T03:46:39.650Z,13.07
2019-04-27T03:47:36.651Z,13.1
2019-04-27T03:48:35.342Z,13.25
2019-04-27T03:49:37.636Z,13.22
2019-04-27T03:50:32.514Z,13.23
2019-04-27T03:51:31.071Z,13.3
2019-04-27T03:52:30.076Z,13.36
2019-04-27T03:53:29.647Z,13.39
2019-04-27T03:54:26.774Z,13.28
2019-04-27T03:55:25.420Z,13.25
2019-04-27T03:56:24.075Z,13.11
2019-04-27T03:57:22.614Z,13.05
2019-04-27T03:58:21.822Z,13.07
2019-04-27T03:59:19.945Z,13.11
2019-04-27T04:00:19.876Z,13.14
2019-04-27T04:01:17.145Z,13.12
2019-04-27T04:02:15.752Z,13.11
2019-04-27T04:03:14.291Z,13.12
2019-04-27T04:04:12.858Z,13.12
2019-04-27T04:05:11.566Z,13.1
2019-04-27T04:06:10.845Z,13.12
2019-04-27T04:07:09.532Z,13.08
2019-04-27T04:08:10.316Z,13.1
2019-04-27T04:09:06.167Z,13.15
2019-04-27T04:10:04.748Z,13.23
2019-04-27T04:11:03.300Z,13.28
2019-04-27T04:12:02.214Z,13.44
2019-04-27T04:13:01.512Z,13.44
2019-04-27T04:14:00.076Z,13.49
2019-04-27T04:14:59.765Z,13.45
2019-04-27T04:15:56.268Z,13.44
2019-04-27T04:16:58.875Z,13.52
2019-04-27T04:17:53.674Z,13.55
2019-04-27T04:18:52.225Z,13.48
2019-04-27T04:19:57.209Z,13.59
2019-04-27T04:20:50.486Z,13.45
2019-04-27T04:21:50.257Z,13.52
2019-04-27T04:22:46.573Z,13.49
2019-04-27T04:23:45.117Z,13.33
2019-04-27T04:24:43.682Z,13.25
2019-04-27T04:27:24.039Z,13.44
2019-04-27T04:28:22.863Z,13.49
2019-04-27T04:29:21.525Z,13.28
2019-04-27T04:30:20.182Z,13.11
2019-04-27T04:31:20.852Z,13.22
2019-04-27T04:32:19.155Z,13.36
2019-04-27T04:33:16.036Z,13.38
2019-04-27T04:34:14.592Z,13.32
2019-04-27T04:35:13.348Z,13.45
2019-04-27T04:36:11.890Z,13.29
2019-04-27T04:37:10.438Z,13.38
2019-04-27T04:38:10.273Z,13.26
2019-04-27T04:39:10.377Z,13.2
2019-04-27T04:42:30.548Z,13.51
2019-04-27T04:43:29.461Z,13.54
2019-04-27T04:44:30.007Z,13.49
2019-04-27T04:45:26.261Z,13.28
2019-04-27T04:46:24.879Z,13.39
2019-04-27T04:47:23.520Z,13.45
2019-04-27T04:48:22.085Z,13.48
2019-04-27T04:49:20.638Z,13.48
2019-04-27T04:50:20.261Z,13.45
2019-04-27T04:51:19.886Z,13.54
2019-04-27T04:52:16.442Z,13.49
2019-04-27T04:53:15.099Z,13.57
2019-04-27T04:54:13.749Z,13.54
2019-04-27T04:55:12.317Z,13.75
2019-04-27T04:56:10.933Z,13.91
2019-04-27T04:57:09.480Z,13.84
2019-04-27T04:58:09.311Z,13.85
2019-04-27T04:59:07.342Z,13.81
2019-04-27T05:00:05.207Z,13.89
2019-04-27T05:01:03.866Z,13.79
2019-04-27T05:02:02.686Z,13.69
2019-04-27T05:03:01.055Z,13.64
2019-04-27T05:03:59.640Z,13.66
2019-04-27T05:04:59.062Z,13.75
2019-04-27T05:05:58.576Z,13.71
2019-04-27T05:06:55.457Z,13.73
2019-04-27T05:07:54.024Z,13.81
2019-04-27T05:08:52.547Z,13.81
2019-04-27T05:09:51.099Z,14.1
2019-04-27T05:10:49.876Z,14.12
2019-04-27T05:11:48.648Z,14.24
2019-04-27T05:12:48.573Z,14.12
2019-04-27T05:13:45.703Z,14.21
2019-04-27T05:14:44.273Z,14.33
2019-04-27T05:15:42.922Z,14.22
2019-04-27T05:16:41.610Z,14.27
2019-04-27T05:17:40.155Z,14.33
2019-04-27T05:18:39.357Z,14.27
2019-04-27T05:19:38.749Z,14.27
2019-04-27T05:20:35.764Z,14.28
2019-04-27T05:21:34.492Z,14.4
2019-04-27T05:22:33.096Z,14.5
2019-04-27T05:23:31.765Z,14.51
2019-04-27T05:24:30.326Z,14.55
2019-04-27T05:25:29.042Z,14.57
2019-04-27T05:26:29.281Z,14.62
2019-04-27T05:27:26.455Z,14.65
2019-04-27T05:28:24.910Z,14.69
2019-04-27T05:29:23.687Z,14.72
2019-04-27T05:30:22.222Z,14.75
2019-04-27T05:31:20.763Z,14.84
2019-04-27T05:32:20.656Z,14.96
2019-04-27T05:33:18.697Z,14.89
2019-04-27T05:34:16.643Z,14.94
2019-04-27T05:35:15.388Z,15.01
2019-04-27T05:36:13.950Z,15.07
2019-04-27T05:37:12.566Z,15.21
2019-04-27T05:38:13.441Z,15.28
2019-04-27T05:39:12.989Z,15.51
2019-04-27T05:40:09.111Z,15.57
2019-04-27T05:41:08.518Z,15.71
2019-04-27T05:42:05.830Z,15.74
2019-04-27T05:43:04.372Z,15.84
2019-04-27T05:44:07.136Z,15.84
2019-04-27T05:45:01.636Z,15.97
2019-04-27T05:46:01.072Z,16.04
2019-04-27T05:46:58.918Z,15.93
2019-04-27T05:47:58.916Z,15.92
2019-04-27T05:48:59.846Z,15.84
2019-04-27T05:49:54.660Z,15.82
2019-04-27T05:50:58.678Z,15.62
2019-04-27T05:51:52.267Z,15.65
2019-04-27T05:52:50.797Z,15.62
2019-04-27T05:53:49.589Z,15.51
2019-04-27T05:54:48.878Z,15.51
2019-04-27T05:55:46.592Z,15.41
2019-04-27T05:56:45.200Z,15.51
2019-04-27T05:57:43.843Z,15.6
2019-04-27T05:58:42.418Z,15.51
2019-04-27T05:59:41.094Z,15.53
2019-04-27T06:00:39.746Z,15.56
2019-04-27T06:01:38.875Z,15.67
2019-04-27T06:02:36.842Z,15.65
2019-04-27T06:05:18.778Z,15.72
2019-04-27T06:06:15.738Z,15.59
2019-04-27T06:07:14.355Z,15.65
2019-04-27T06:08:13.134Z,15.5
2019-04-27T06:09:11.922Z,15.5
2019-04-27T06:10:10.486Z,15.54
2019-04-27T06:11:09.544Z,15.34
2019-04-27T06:12:08.945Z,15.21
2019-04-27T06:13:06.480Z,15.44
2019-04-27T06:15:30.152Z,15.14
2019-04-27T06:16:29.317Z,15.21
2019-04-27T06:17:26.286Z,15.14
2019-04-27T06:18:24.847Z,15.23
2019-04-27T06:19:23.412Z,15.11
2019-04-27T06:20:21.911Z,15.06
2019-04-27T06:21:20.480Z,15.11
2019-04-27T06:22:19.058Z,15.02
2019-04-27T06:23:18.633Z,15.03
2019-04-27T06:24:16.242Z,15.21
2019-04-27T06:25:14.840Z,15.25
2019-04-27T06:26:13.553Z,15.32
2019-04-27T06:27:12.110Z,15.2
2019-04-27T06:28:10.723Z,15.14
2019-04-27T06:29:09.547Z,15.2
2019-04-27T06:30:09.313Z,15.2
2019-04-27T06:31:06.594Z,15.27
2019-04-27T06:32:05.190Z,14.99
2019-04-27T06:33:03.750Z,15.09
2019-04-27T06:34:02.510Z,15.07
2019-04-27T06:35:01.267Z,15.16
2019-04-27T06:36:01.780Z,15.09
2019-04-27T06:36:59.881Z,15.06
2019-04-27T06:37:58.556Z,15.21
2019-04-27T06:38:55.675Z,15.2
2019-04-27T06:39:54.696Z,15.34
2019-04-27T06:40:53.497Z,15.29
2019-04-27T06:41:52.081Z,15.27
2019-04-27T06:42:50.641Z,15.27
2019-04-27T06:46:48.958Z,15.02
2019-04-27T06:48:31.393Z,15.09
2019-04-27T06:51:05.851Z,15.19
2019-04-27T06:52:04.036Z,15.2
2019-04-27T06:53:02.589Z,15.2
2019-04-27T06:57:09.181Z,15.27
2019-04-27T06:58:06.791Z,15.16
2019-04-27T06:59:05.442Z,14.99
2019-04-27T07:03:10.782Z,15.03
2019-04-27T07:04:10.871Z,15.11
2019-04-27T07:05:08.919Z,15.07
2019-04-27T07:07:31.192Z,15.06
2019-04-27T07:09:39.323Z,15.07
2019-04-27T07:10:39.138Z,15.07
2019-04-27T07:12:38.677Z,15.03
2019-04-27T07:13:36.761Z,15.03
2019-04-27T07:14:35.462Z,14.94
2019-04-27T07:16:19.697Z,14.84
2019-04-27T07:17:19.011Z,14.88
2019-04-27T07:19:02.482Z,14.96
2019-04-27T07:20:01.140Z,14.8
2019-04-27T07:23:38.815Z,14.64
2019-04-27T07:24:52.242Z,14.61
2019-04-27T07:25:50.805Z,14.75
2019-04-27T07:26:49.575Z,14.78
2019-04-27T07:27:49.323Z,14.78
2019-04-27T07:28:46.687Z,14.83
2019-04-27T07:29:45.526Z,14.78
2019-04-27T07:30:44.215Z,14.77
2019-04-27T07:31:42.814Z,14.68
2019-04-27T07:32:41.602Z,14.7
2019-04-27T07:33:40.142Z,14.68
2019-04-27T07:34:38.894Z,14.69
2019-04-27T07:35:39.075Z,14.73
2019-04-27T07:36:36.110Z,14.8
2019-04-27T07:37:34.639Z,14.64
2019-04-27T07:38:33.190Z,14.73
2019-04-27T07:39:31.743Z,14.8
2019-04-27T07:40:30.429Z,14.78
2019-04-27T07:41:29.279Z,14.84
2019-04-27T07:42:30.027Z,14.86
2019-04-27T07:43:26.362Z,14.89
2019-04-27T07:44:24.979Z,14.99
2019-04-27T07:45:23.726Z,14.99
2019-04-27T07:46:22.239Z,14.91
2019-04-27T07:47:20.794Z,14.89
2019-04-27T07:48:19.353Z,14.91
2019-04-27T07:49:19.025Z,14.92
2019-04-27T07:50:16.428Z,14.91
2019-04-27T07:51:15.058Z,14.88
2019-04-27T07:52:13.759Z,15.01
2019-04-27T07:53:12.415Z,15.16
2019-04-27T07:54:11.111Z,15.23
2019-04-27T07:55:09.806Z,15.32
2019-04-27T07:56:09.212Z,15.38
2019-04-27T07:57:06.974Z,15.36
2019-04-27T07:58:05.639Z,15.39
2019-04-27T07:59:04.163Z,15.57
2019-04-27T08:00:02.727Z,15.5
2019-04-27T08:01:01.367Z,15.6
2019-04-27T08:01:59.971Z,15.49
2019-04-27T08:02:58.680Z,15.36
2019-04-27T08:03:58.893Z,15.21
2019-04-27T08:04:55.816Z,15.14
2019-04-27T08:05:54.365Z,15.09
2019-04-27T08:06:52.967Z,15.07
2019-04-27T08:07:51.586Z,15.03
2019-04-27T08:08:50.136Z,15.03
2019-04-27T08:09:49.568Z,14.92
2019-04-27T08:10:48.270Z,14.91
2019-04-27T08:11:45.787Z,14.96
2019-04-27T08:12:44.413Z,14.92
2019-04-27T08:13:43.037Z,14.95
2019-04-27T08:14:41.610Z,15.06
2019-04-27T08:15:40.167Z,15.06
2019-04-27T08:16:38.939Z,15.1
2019-04-27T08:17:37.576Z,15.27
2019-04-27T08:18:36.153Z,15.32
2019-04-27T08:19:34.742Z,15.36
2019-04-27T08:20:33.354Z,15.56
2019-04-27T08:21:43.005Z,15.68
2019-04-27T08:22:30.422Z,15.75
2019-04-27T08:23:29.444Z,15.87
2019-04-27T08:24:29.308Z,15.87
2019-04-27T08:25:26.102Z,15.93
2019-04-27T08:26:24.665Z,15.93
2019-04-27T08:27:23.265Z,15.89
2019-04-27T08:28:21.834Z,15.93
2019-04-27T08:29:20.422Z,15.76
2019-04-27T08:30:19.494Z,15.68
2019-04-27T08:31:18.717Z,15.57
2019-04-27T08:32:16.367Z,15.5
2019-04-27T08:33:14.888Z,15.54
2019-04-27T08:34:13.533Z,15.35
2019-04-27T08:35:12.092Z,15.49
2019-04-27T08:36:10.607Z,15.41
2019-04-27T08:37:09.310Z,15.36
2019-04-27T08:38:09.027Z,15.49
2019-04-27T08:39:06.292Z,15.51
2019-04-27T08:40:05.058Z,15.56
2019-04-27T08:41:03.811Z,15.59
2019-04-27T08:42:02.337Z,15.49
2019-04-27T08:43:00.997Z,15.47
2019-04-27T08:43:59.724Z,15.49
2019-04-27T08:44:59.368Z,15.53
2019-04-27T08:45:58.714Z,15.51
2019-04-27T08:46:55.385Z,15.56
2019-04-27T08:47:54.543Z,15.51
2019-04-27T08:48:53.228Z,15.51
2019-04-27T08:49:51.792Z,15.44
2019-04-27T08:50:50.354Z,15.46
2019-04-27T08:51:56.992Z,15.38
2019-04-27T08:52:47.439Z,15.41
2019-04-27T08:53:46.050Z,15.39
2019-04-27T08:54:44.590Z,15.32
2019-04-27T08:55:43.249Z,15.35
2019-04-27T08:56:41.881Z,15.32
2019-04-27T08:57:40.429Z,15.29
2019-04-27T08:58:39.131Z,15.09
2019-04-27T08:59:39.254Z,15.21
2019-04-27T09:00:36.285Z,15.19
2019-04-27T09:01:58.691Z,15.06
2019-04-27T09:02:56.373Z,15.06
2019-04-27T09:03:55.115Z,15.25
2019-04-27T09:04:53.697Z,15.21
2019-04-27T09:05:52.377Z,15.02
2019-04-27T09:06:50.907Z,15.1
2019-04-27T09:07:49.747Z,14.96
2019-04-27T09:08:49.495Z,15.07
2019-04-27T09:09:46.626Z,14.91
2019-04-27T09:10:45.269Z,14.88
2019-04-27T09:11:43.814Z,14.91
2019-04-27T09:12:42.371Z,15.06
2019-04-27T09:13:41.219Z,15.2
2019-04-27T09:14:40.771Z,15.32
2019-04-27T09:15:39.114Z,15.44
2019-04-27T09:16:38.745Z,15.51
2019-04-27T09:17:35.636Z,15.8
2019-04-27T09:18:34.185Z,15.87
2019-04-27T09:19:32.746Z,15.97
2019-04-27T09:20:31.296Z,15.93
2019-04-27T09:21:29.837Z,15.96
2019-04-27T09:22:28.893Z,16
2019-04-27T09:23:28.587Z,15.93
2019-04-27T09:24:25.728Z,16.02
2019-04-27T09:25:24.314Z,15.94
2019-04-27T09:26:22.867Z,15.92
2019-04-27T09:27:21.602Z,16.11
2019-04-27T09:28:21.848Z,16.05
2019-04-27T09:29:19.735Z,16.09
2019-04-27T09:30:18.883Z,16.21
2019-04-27T09:31:15.960Z,16.24
2019-04-27T09:32:14.526Z,16.34
2019-04-27T09:33:13.204Z,16.42
2019-04-27T09:34:12.729Z,16.45
2019-04-27T09:35:10.453Z,16.56
2019-04-27T09:36:09.212Z,16.49
2019-04-27T09:37:07.977Z,16.6
2019-04-27T09:38:07.118Z,16.63
2019-04-27T09:39:06.240Z,16.63
2019-04-27T09:40:03.777Z,16.81
2019-04-27T09:41:02.483Z,16.82
2019-04-27T09:42:01.033Z,16.58
2019-04-27T09:42:59.819Z,16.57
2019-04-27T09:43:58.518Z,16.56
2019-04-27T09:44:57.149Z,16.5
2019-04-27T09:45:55.908Z,16.68
2019-04-27T09:46:55.843Z,16.57
2019-04-27T09:47:53.117Z,16.41
2019-04-27T09:48:51.869Z,16.38
2019-04-27T09:49:50.835Z,16.25
2019-04-27T09:50:49.744Z,16.08
2019-04-27T09:51:48.403Z,16.05
2019-04-27T09:52:47.007Z,16.01
2019-04-27T09:53:45.918Z,15.86
2019-04-27T09:57:25.922Z,15.89
2019-04-27T09:58:25.498Z,15.84
2019-04-27T09:59:23.829Z,15.96
2019-04-27T10:04:32.026Z,16.09
2019-04-27T10:05:30.594Z,16.17
2019-04-27T10:06:29.999Z,16.23
2019-04-27T10:07:27.972Z,16.41
2019-04-27T10:08:26.737Z,16.39
2019-04-27T10:12:07.375Z,16.3
2019-04-27T10:13:04.765Z,16.42
2019-04-27T10:14:03.423Z,16.42
2019-04-27T10:15:02.088Z,16.42
2019-04-27T10:16:00.596Z,16.42
2019-04-27T10:16:59.416Z,16.46
2019-04-27T10:20:22.779Z,16.73
2019-04-27T10:21:21.590Z,16.73
2019-04-27T10:22:20.332Z,16.82
2019-04-27T10:23:19.007Z,16.81
2019-04-27T10:25:00.298Z,17.08
2019-04-27T10:26:57.460Z,17.14
2019-04-27T10:27:56.041Z,16.88
2019-04-27T10:28:55.968Z,17.04
2019-04-27T10:29:53.270Z,17.26
2019-04-27T10:32:10.456Z,17.11
2019-04-27T10:33:09.095Z,17.12
2019-04-27T10:34:08.403Z,16.91
2019-04-27T10:35:07.557Z,17.01
2019-04-27T10:37:03.149Z,16.89
2019-04-27T10:38:01.760Z,16.76
2019-04-27T10:39:00.271Z,16.79
2019-04-27T10:39:58.826Z,16.83
2019-04-27T10:40:57.769Z,16.78
2019-04-27T10:41:56.419Z,16.61
2019-04-27T10:42:56.039Z,16.66
2019-04-27T10:43:53.571Z,16.94
2019-04-27T10:44:52.199Z,17.25
2019-04-27T10:45:50.782Z,17.46
2019-04-27T10:46:49.499Z,17.48
2019-04-27T10:47:49.541Z,17.56
2019-04-27T10:48:46.711Z,17.72
2019-04-27T10:49:46.518Z,17.72
2019-04-27T10:50:43.939Z,17.93
2019-04-27T10:51:42.479Z,17.84
2019-04-27T10:52:52.764Z,17.84
2019-04-27T10:53:39.815Z,17.62
2019-04-27T10:54:38.358Z,17.75
2019-04-27T10:55:37.052Z,17.68
2019-04-27T10:56:36.183Z,17.78
2019-04-27T10:57:34.428Z,17.86
2019-04-27T10:58:33.117Z,17.74
2019-04-27T10:59:31.889Z,17.87
2019-04-27T11:00:30.469Z,17.89
2019-04-27T11:01:29.049Z,17.75
2019-04-27T11:02:27.694Z,17.79
2019-04-27T11:03:26.256Z,17.77
2019-04-27T11:04:26.023Z,17.68
2019-04-27T11:05:23.750Z,17.77
2019-04-27T11:06:22.418Z,17.59
2019-04-27T11:07:20.954Z,17.58
2019-04-27T11:08:19.515Z,17.52
2019-04-27T11:09:18.160Z,17.56
2019-04-27T11:10:16.752Z,17.34
2019-04-27T11:11:15.584Z,17.23
2019-04-27T11:12:15.784Z,17.4
2019-04-27T11:13:12.803Z,17.3
2019-04-27T11:14:11.493Z,17.4
2019-04-27T11:15:10.053Z,17.16
2019-04-27T11:16:08.616Z,16.96
2019-04-27T11:17:07.170Z,17.04
2019-04-27T11:18:06.311Z,16.7
2019-04-27T11:19:06.201Z,16.66
2019-04-27T11:20:02.992Z,16.71
2019-04-27T11:21:01.720Z,16.75
2019-04-27T11:22:00.282Z,16.61
2019-04-27T11:23:06.851Z,16.68
2019-04-27T11:23:57.682Z,16.91
2019-04-27T11:24:56.500Z,17.23
2019-04-27T11:25:55.077Z,17.43
2019-04-27T11:26:53.686Z,17.68
2019-04-27T11:27:52.333Z,17.77
2019-04-27T11:28:51.006Z,17.78
2019-04-27T11:29:49.588Z,17.75
2019-04-27T11:30:48.115Z,17.52
2019-04-27T11:31:46.706Z,17.49
2019-04-27T11:32:45.356Z,17.44
2019-04-27T11:33:43.888Z,17.44
2019-04-27T11:34:42.450Z,17.43
2019-04-27T11:35:41.028Z,17.34
2019-04-27T11:36:39.637Z,17.07
2019-04-27T11:37:38.209Z,17.08
2019-04-27T11:38:36.797Z,17.11
2019-04-27T11:39:35.998Z,16.98
2019-04-27T11:40:34.149Z,17.14
2019-04-27T11:41:32.757Z,17.22
2019-04-27T11:42:31.505Z,17
2019-04-27T11:43:30.060Z,17.08
2019-04-27T11:44:28.659Z,17.08
2019-04-27T11:45:28.427Z,17.03
2019-04-27T11:46:26.665Z,17.18
2019-04-27T11:47:24.782Z,16.88
2019-04-27T11:48:23.474Z,16.82
2019-04-27T11:49:22.051Z,16.88
2019-04-27T11:50:20.600Z,16.96
2019-04-27T11:51:19.128Z,17.11
2019-04-27T11:52:17.779Z,16.97
2019-04-27T11:53:22.200Z,17.11
2019-04-27T11:54:15.070Z,17.08
2019-04-27T11:55:13.891Z,17.25
2019-04-27T11:56:12.425Z,17.25
2019-04-27T11:57:11.052Z,17.18
2019-04-27T11:58:09.722Z,17.08
2019-04-27T11:59:08.262Z,16.97
2019-04-27T12:00:07.451Z,17.16
2019-04-27T12:01:06.730Z,17.44
2019-04-27T12:02:03.937Z,17.55
2019-04-27T12:03:02.513Z,17.68
2019-04-27T12:04:01.576Z,17.92
2019-04-27T12:05:00.049Z,18.07
2019-04-27T12:06:00.264Z,18.05
2019-04-27T12:06:57.367Z,18.02
2019-04-27T12:07:56.191Z,17.89
2019-04-27T12:08:54.484Z,17.62
2019-04-27T12:09:53.065Z,17.48
2019-04-27T12:10:51.746Z,17.43
2019-04-27T12:11:50.328Z,17.36
2019-04-27T12:12:48.904Z,17.44
2019-04-27T12:13:47.702Z,17.56
2019-04-27T12:14:47.450Z,17.56
2019-04-27T12:15:46.454Z,17.63
2019-04-27T12:16:43.573Z,17.66
2019-04-27T12:17:42.158Z,17.66
2019-04-27T12:18:40.802Z,17.82
2019-04-27T12:19:39.676Z,17.58
2019-04-27T12:20:38.224Z,17.52
2019-04-27T12:21:36.808Z,17.25
2019-04-27T12:22:35.366Z,16.93
2019-04-27T12:23:37.006Z,16.89
2019-04-27T12:24:32.552Z,16.93
2019-04-27T12:25:31.242Z,17.11
2019-04-27T12:26:29.823Z,17.22
2019-04-27T12:27:28.444Z,17.25
2019-04-27T12:28:27.302Z,17.37
2019-04-27T12:29:25.700Z,17.43
2019-04-27T12:30:25.985Z,17.41
2019-04-27T12:31:22.834Z,17.51
2019-04-27T12:32:21.629Z,17.54
2019-04-27T12:33:20.235Z,17.64
2019-04-27T12:34:18.785Z,17.75
2019-04-27T12:35:17.418Z,17.55
2019-04-27T12:36:15.981Z,17.48
2019-04-27T12:37:15.700Z,17.43
2019-04-27T12:38:13.243Z,17.46
2019-04-27T12:39:11.822Z,17.4
2019-04-27T12:40:10.485Z,17.25
2019-04-27T12:41:09.249Z,17.19
2019-04-27T12:42:07.901Z,16.98
2019-04-27T12:43:06.465Z,17.11
2019-04-27T12:44:05.058Z,17.22
2019-04-27T12:45:03.743Z,17.44
2019-04-27T12:46:02.327Z,17.49
2019-04-27T12:47:02.550Z,17.62
2019-04-27T12:48:00.069Z,17.62
2019-04-27T12:48:58.624Z,17.55
2019-04-27T12:49:57.707Z,17.68
2019-04-27T12:50:56.287Z,17.87
2019-04-27T12:51:55.802Z,18.02
2019-04-27T12:52:52.990Z,17.72
2019-04-27T12:53:52.869Z,17.59
2019-04-27T12:54:50.438Z,17.51
2019-04-27T12:55:49.103Z,17.43
2019-04-27T12:56:47.823Z,17.31
2019-04-27T12:57:46.647Z,17.48
2019-04-27T12:58:47.111Z,17.4
2019-04-27T12:59:44.361Z,17.41
2019-04-27T13:00:43.159Z,17.41
2019-04-27T13:01:41.904Z,17.51
2019-04-27T13:02:40.528Z,17.49
2019-04-27T13:03:39.478Z,17.54
2019-04-27T13:04:38.458Z,17.43
2019-04-27T13:05:37.061Z,17.37
2019-04-27T13:06:35.886Z,17.31
2019-04-27T13:07:34.436Z,17.25
2019-04-27T13:08:33.241Z,17.18
2019-04-27T13:09:31.876Z,17.11
2019-04-27T13:10:30.566Z,17.11
2019-04-27T13:11:29.279Z,17.19
2019-04-27T13:12:27.941Z,17.07
2019-04-27T13:13:26.780Z,17.19
2019-04-27T13:14:26.307Z,17.28
2019-04-27T13:15:24.008Z,17.25
2019-04-27T13:16:22.597Z,17.11
2019-04-27T13:17:21.286Z,17.23
2019-04-27T13:18:19.888Z,17.21
2019-04-27T13:19:18.430Z,17.18
2019-04-27T13:20:17.009Z,17.21
2019-04-27T13:21:17.579Z,17.11
2019-04-27T13:22:14.159Z,16.97
2019-04-27T13:23:12.767Z,16.75